sensor_id;sensor_type;location;lat;lon;timestamp;pressure;altitude;pressure_sealevel;temperature;humidity
54918;BME280;40818;50.562;7.454;2024-01-27T00:04:11;99439.91;;;2.01;100.00
54918;BME280;40818;50.562;7.454;2024-01-27T00:14:14;99436.53;;;1.96;100.00
54918;BME280;40818;50.562;7.454;2024-01-27T00:24:20;99433.09;;;1.94;100.00
54918;BME280;40818;50.562;7.454;2024-01-27T00:34:24;99433.97;;;1.81;100.00
54918;BME280;40818;50.562;7.454;2024-01-27T00:44:30;99436.56;;;1.75;100.00
54918;BME280;40818;50.562;7.454;2024-01-27T00:54:33;99454.53;;;1.61;100.00
54918;BME280;40818;50.562;7.454;2024-01-27T01:04:39;99457.09;;;1.39;100.00
54918;BME280;40818;50.562;7.454;2024-01-27T01:14:43;99458.81;;;1.17;100.00
54918;BME280;40818;50.562;7.454;2024-01-27T01:24:49;99462.19;;;0.94;100.00
54918;BME280;40818;50.562;7.454;2024-01-27T01:34:52;99470.69;;;0.72;100.00
54918;BME280;40818;50.562;7.454;2024-01-27T01:44:58;99477.44;;;0.53;100.00
54918;BME280;40818;50.562;7.454;2024-01-27T01:55:02;99474.81;;;0.31;100.00
54918;BME280;40818;50.562;7.454;2024-01-27T02:05:08;99475.59;;;0.10;100.00
54918;BME280;40818;50.562;7.454;2024-01-27T02:15:13;99473.81;;;-0.04;100.00
54918;BME280;40818;50.562;7.454;2024-01-27T02:25:19;99472.91;;;-0.09;100.00
54918;BME280;40818;50.562;7.454;2024-01-27T02:35:22;99476.25;;;-0.22;100.00
54918;BME280;40818;50.562;7.454;2024-01-27T02:45:28;99480.47;;;-0.30;100.00
54918;BME280;40818;50.562;7.454;2024-01-27T02:55:31;99487.22;;;-0.36;100.00
54918;BME280;40818;50.562;7.454;2024-01-27T03:05:37;99478.66;;;-0.42;100.00
54918;BME280;40818;50.562;7.454;2024-01-27T03:15:41;99479.50;;;-0.46;100.00
54918;BME280;40818;50.562;7.454;2024-01-27T03:25:47;99491.31;;;-0.56;100.00
54918;BME280;40818;50.562;7.454;2024-01-27T03:35:50;99492.09;;;-0.66;100.00
54918;BME280;40818;50.562;7.454;2024-01-27T03:45:56;99498.03;;;-0.67;100.00
54918;BME280;40818;50.562;7.454;2024-01-27T03:56:00;99506.47;;;-0.78;100.00
54918;BME280;40818;50.562;7.454;2024-01-27T04:06:07;99519.13;;;-0.87;100.00
54918;BME280;40818;50.562;7.454;2024-01-27T04:16:10;99520.03;;;-0.83;100.00
54918;BME280;40818;50.562;7.454;2024-01-27T04:26:16;99526.88;;;-0.79;100.00
54918;BME280;40818;50.562;7.454;2024-01-27T04:36:26;99522.47;;;-0.91;100.00
54918;BME280;40818;50.562;7.454;2024-01-27T04:46:32;99539.41;;;-0.99;100.00
54918;BME280;40818;50.562;7.454;2024-01-27T04:56:36;99542.78;;;-1.00;100.00
54918;BME280;40818;50.562;7.454;2024-01-27T05:06:46;99540.22;;;-1.02;100.00
54918;BME280;40818;50.562;7.454;2024-01-27T05:16:49;99541.09;;;-1.01;100.00
54918;BME280;40818;50.562;7.454;2024-01-27T05:26:55;99535.94;;;-1.05;100.00
54918;BME280;40818;50.562;7.454;2024-01-27T05:36:59;99546.13;;;-1.05;100.00
54918;BME280;40818;50.562;7.454;2024-01-27T05:47:05;99545.13;;;-1.21;100.00
54918;BME280;40818;50.562;7.454;2024-01-27T05:57:11;99542.44;;;-1.31;100.00
54918;BME280;40818;50.562;7.454;2024-01-27T06:07:16;99550.03;;;-1.38;100.00
54918;BME280;40818;50.562;7.454;2024-01-27T06:17:20;99547.38;;;-1.45;100.00
54918;BME280;40818;50.562;7.454;2024-01-27T06:27:26;99560.53;;;-1.80;100.00
54918;BME280;40818;50.562;7.454;2024-01-27T06:37:29;99560.53;;;-1.79;100.00
54918;BME280;40818;50.562;7.454;2024-01-27T06:47:35;99561.34;;;-1.81;100.00
54918;BME280;40818;50.562;7.454;2024-01-27T06:57:38;99567.22;;;-1.85;100.00
54918;BME280;40818;50.562;7.454;2024-01-27T07:07:46;99592.56;;;-1.95;100.00
54918;BME280;40818;50.562;7.454;2024-01-27T07:17:49;99595.00;;;-2.02;100.00
54918;BME280;40818;50.562;7.454;2024-01-27T07:27:55;99599.34;;;-1.94;100.00
54918;BME280;40818;50.562;7.454;2024-01-27T07:37:59;99588.72;;;-1.66;100.00
54918;BME280;40818;50.562;7.454;2024-01-27T07:48:06;99586.88;;;-1.11;100.00
54918;BME280;40818;50.562;7.454;2024-01-27T07:58:09;99578.28;;;-0.35;100.00
54918;BME280;40818;50.562;7.454;2024-01-27T08:08:15;99585.56;;;0.38;100.00
54918;BME280;40818;50.562;7.454;2024-01-27T08:18:18;99580.63;;;0.70;100.00
54918;BME280;40818;50.562;7.454;2024-01-27T08:28:25;99597.47;;;0.34;100.00
54918;BME280;40818;50.562;7.454;2024-01-27T08:38:28;99607.19;;;1.11;100.00
54918;BME280;40818;50.562;7.454;2024-01-27T08:48:34;99614.94;;;2.20;100.00
54918;BME280;40818;50.562;7.454;2024-01-27T08:58:37;99618.38;;;1.61;100.00
54918;BME280;40818;50.562;7.454;2024-01-27T09:08:43;99613.22;;;1.44;100.00
54918;BME280;40818;50.562;7.454;2024-01-27T09:18:47;99617.44;;;1.17;100.00
54918;BME280;40818;50.562;7.454;2024-01-27T09:28:53;99619.97;;;1.05;100.00
54918;BME280;40818;50.562;7.454;2024-01-27T09:38:57;99615.78;;;1.41;100.00
54918;BME280;40818;50.562;7.454;2024-01-27T09:49:03;99626.91;;;1.67;100.00
54918;BME280;40818;50.562;7.454;2024-01-27T09:59:08;99633.75;;;2.07;100.00
54918;BME280;40818;50.562;7.454;2024-01-27T10:09:17;99614.91;;;2.42;100.00
54918;BME280;40818;50.562;7.454;2024-01-27T10:19:21;99622.31;;;3.21;100.00
54918;BME280;40818;50.562;7.454;2024-01-27T10:29:27;99634.88;;;3.70;100.00
54918;BME280;40818;50.562;7.454;2024-01-27T10:39:30;99637.53;;;4.57;100.00
54918;BME280;40818;50.562;7.454;2024-01-27T10:49:37;99660.97;;;6.30;100.00
54918;BME280;40818;50.562;7.454;2024-01-27T10:59:45;99650.22;;;6.54;100.00
54918;BME280;40818;50.562;7.454;2024-01-27T11:09:53;99643.19;;;5.56;99.47
54918;BME280;40818;50.562;7.454;2024-01-27T11:19:57;99627.16;;;5.35;100.00
54918;BME280;40818;50.562;7.454;2024-01-27T11:30:04;99620.97;;;5.45;100.00
54918;BME280;40818;50.562;7.454;2024-01-27T11:40:09;99630.53;;;5.96;94.48
54918;BME280;40818;50.562;7.454;2024-01-27T11:50:17;99625.97;;;5.58;98.90
54918;BME280;40818;50.562;7.454;2024-01-27T12:00:21;99622.34;;;6.24;96.11
54918;BME280;40818;50.562;7.454;2024-01-27T12:10:27;99627.25;;;6.85;92.66
54918;BME280;40818;50.562;7.454;2024-01-27T12:20:30;99621.53;;;8.24;94.44
54918;BME280;40818;50.562;7.454;2024-01-27T12:30:36;99631.19;;;9.43;84.98
54918;BME280;40818;50.562;7.454;2024-01-27T12:40:40;99622.25;;;9.80;85.82
54918;BME280;40818;50.562;7.454;2024-01-27T12:50:46;99590.94;;;10.64;83.04
54918;BME280;40818;50.562;7.454;2024-01-27T13:00:49;99588.34;;;10.64;65.74
54918;BME280;40818;50.562;7.454;2024-01-27T13:10:55;99569.53;;;9.80;70.22
54918;BME280;40818;50.562;7.454;2024-01-27T13:20:59;99567.78;;;8.97;64.24
54918;BME280;40818;50.562;7.454;2024-01-27T13:31:07;99572.25;;;7.94;73.61
54918;BME280;40818;50.562;7.454;2024-01-27T13:41:10;99564.13;;;7.39;71.47
54918;BME280;40818;50.562;7.454;2024-01-27T13:51:16;99573.25;;;6.29;75.86
54918;BME280;40818;50.562;7.454;2024-01-27T14:01:20;99557.47;;;5.44;81.08
54918;BME280;40818;50.562;7.454;2024-01-27T14:11:27;99555.88;;;5.36;84.40
54918;BME280;40818;50.562;7.454;2024-01-27T14:21:31;99555.34;;;5.15;83.43
54918;BME280;40818;50.562;7.454;2024-01-27T14:31:37;99540.25;;;4.89;85.43
54918;BME280;40818;50.562;7.454;2024-01-27T14:41:43;99543.97;;;4.63;85.32
54918;BME280;40818;50.562;7.454;2024-01-27T14:51:49;99534.72;;;4.51;85.58
54918;BME280;40818;50.562;7.454;2024-01-27T15:01:52;99526.25;;;4.41;82.68
54918;BME280;40818;50.562;7.454;2024-01-27T15:12:00;99516.97;;;4.28;84.45
54918;BME280;40818;50.562;7.454;2024-01-27T15:22:03;99506.69;;;4.28;83.53
54918;BME280;40818;50.562;7.454;2024-01-27T15:32:10;99505.91;;;4.20;82.95
54918;BME280;40818;50.562;7.454;2024-01-27T15:42:17;99520.69;;;3.99;83.71
54918;BME280;40818;50.562;7.454;2024-01-27T15:52:23;99509.03;;;3.64;84.58
54918;BME280;40818;50.562;7.454;2024-01-27T16:02:27;99507.50;;;3.45;85.78
54918;BME280;40818;50.562;7.454;2024-01-27T16:12:33;99506.94;;;3.02;87.92
54918;BME280;40818;50.562;7.454;2024-01-27T16:22:36;99518.13;;;2.87;89.68
54918;BME280;40818;50.562;7.454;2024-01-27T16:32:42;99503.72;;;2.68;92.02
54918;BME280;40818;50.562;7.454;2024-01-27T16:42:46;99514.88;;;2.54;93.47
54918;BME280;40818;50.562;7.454;2024-01-27T16:52:52;99523.50;;;2.35;94.49
54918;BME280;40818;50.562;7.454;2024-01-27T17:02:55;99526.97;;;2.17;95.72
54918;BME280;40818;50.562;7.454;2024-01-27T17:13:01;99509.97;;;1.76;98.11
54918;BME280;40818;50.562;7.454;2024-01-27T17:23:04;99501.47;;;1.55;99.74
54918;BME280;40818;50.562;7.454;2024-01-27T17:33:11;99508.28;;;1.31;100.00
54918;BME280;40818;50.562;7.454;2024-01-27T17:43:14;99503.16;;;1.24;100.00
54918;BME280;40818;50.562;7.454;2024-01-27T17:53:20;99503.97;;;0.87;100.00
54918;BME280;40818;50.562;7.454;2024-01-27T18:03:23;99503.09;;;0.71;100.00
54918;BME280;40818;50.562;7.454;2024-01-27T18:13:29;99514.22;;;0.96;100.00
54918;BME280;40818;50.562;7.454;2024-01-27T18:23:33;99496.31;;;0.96;100.00
54918;BME280;40818;50.562;7.454;2024-01-27T18:33:39;99501.44;;;0.96;100.00
54918;BME280;40818;50.562;7.454;2024-01-27T18:43:42;99501.44;;;1.02;100.00
54918;BME280;40818;50.562;7.454;2024-01-27T18:53:48;99508.25;;;1.11;100.00
54918;BME280;40818;50.562;7.454;2024-01-27T19:03:52;99511.66;;;0.96;100.00
54918;BME280;40818;50.562;7.454;2024-01-27T19:13:58;99509.94;;;0.89;100.00
54918;BME280;40818;50.562;7.454;2024-01-27T19:24:02;99502.28;;;1.08;100.00
54918;BME280;40818;50.562;7.454;2024-01-27T19:34:07;99502.28;;;1.06;100.00
54918;BME280;40818;50.562;7.454;2024-01-27T19:44:11;99507.38;;;0.97;100.00
54918;BME280;40818;50.562;7.454;2024-01-27T19:54:17;99510.81;;;1.10;100.00
54918;BME280;40818;50.562;7.454;2024-01-27T20:04:20;99502.28;;;1.00;100.00
54918;BME280;40818;50.562;7.454;2024-01-27T20:14:26;99503.94;;;0.78;100.00
54918;BME280;40818;50.562;7.454;2024-01-27T20:24:30;99499.69;;;0.77;100.00
54918;BME280;40818;50.562;7.454;2024-01-27T20:34:36;99487.75;;;0.82;100.00
54918;BME280;40818;50.562;7.454;2024-01-27T20:44:40;99485.19;;;0.79;100.00
54918;BME280;40818;50.562;7.454;2024-01-27T20:54:46;99466.44;;;0.75;100.00
54918;BME280;40818;50.562;7.454;2024-01-27T21:04:49;99477.50;;;0.82;100.00
54918;BME280;40818;50.562;7.454;2024-01-27T21:14:55;99491.16;;;0.85;100.00
54918;BME280;40818;50.562;7.454;2024-01-27T21:24:59;99483.47;;;0.73;100.00
54918;BME280;40818;50.562;7.454;2024-01-27T21:35:05;99474.84;;;0.34;100.00
54918;BME280;40818;50.562;7.454;2024-01-27T21:45:11;99468.72;;;0.03;100.00
54918;BME280;40818;50.562;7.454;2024-01-27T21:55:17;99461.88;;;-0.05;100.00
54918;BME280;40818;50.562;7.454;2024-01-27T22:05:20;99455.06;;;-0.07;100.00
54918;BME280;40818;50.562;7.454;2024-01-27T22:15:27;99434.69;;;0.01;100.00
54918;BME280;40818;50.562;7.454;2024-01-27T22:25:30;99430.50;;;0.20;100.00
54918;BME280;40818;50.562;7.454;2024-01-27T22:35:37;99422.75;;;0.03;100.00
54918;BME280;40818;50.562;7.454;2024-01-27T22:45:40;99407.41;;;-0.04;100.00
54918;BME280;40818;50.562;7.454;2024-01-27T22:55:46;99408.25;;;-0.06;100.00
54918;BME280;40818;50.562;7.454;2024-01-27T23:05:49;99399.66;;;-0.24;100.00
54918;BME280;40818;50.562;7.454;2024-01-27T23:15:56;99389.28;;;-0.53;100.00
54918;BME280;40818;50.562;7.454;2024-01-27T23:26:00;99397.63;;;-0.82;100.00
54918;BME280;40818;50.562;7.454;2024-01-27T23:36:07;99399.16;;;-1.01;100.00
54918;BME280;40818;50.562;7.454;2024-01-27T23:46:11;99391.38;;;-1.19;100.00
54918;BME280;40818;50.562;7.454;2024-01-27T23:56:17;99376.09;;;-1.18;100.00
